createdAt,value
2022-10-01T00:07:10.154Z,100014.82
2022-10-01T00:28:56.681Z,100014.29
2022-10-01T00:50:39.810Z,100016.61
2022-10-01T01:12:44.870Z,100016.06
2022-10-01T01:34:31.638Z,99999.79
2022-10-01T01:56:16.728Z,99993.80
2022-10-01T02:18:08.083Z,99982.58
2022-10-01T02:39:52.913Z,99963.37
2022-10-01T03:01:36.030Z,99946.17
2022-10-01T03:23:19.445Z,99940.23
2022-10-01T03:45:02.532Z,99930.89
2022-10-01T04:06:45.534Z,99926.45
2022-10-01T04:28:29.176Z,99916.54
2022-10-01T04:50:12.291Z,99916.38
2022-10-01T05:11:55.269Z,99914.62
2022-10-01T05:33:38.364Z,99905.34
2022-10-01T05:55:22.774Z,99905.84
2022-10-01T06:17:05.881Z,99893.59
2022-10-01T06:38:49.507Z,99893.46
2022-10-01T07:00:35.201Z,99886.67
2022-10-01T07:22:19.208Z,99873.50
2022-10-01T07:44:03.642Z,99854.95
2022-10-01T08:05:47.374Z,99841.86
2022-10-01T08:27:30.422Z,99832.90
2022-10-01T08:49:21.405Z,99797.19
2022-10-01T09:11:12.437Z,99759.98
2022-10-01T09:32:59.716Z,99727.56
2022-10-01T09:54:49.562Z,99702.55
2022-10-01T10:16:37.231Z,99673.42
2022-10-01T10:38:22.650Z,99648.89
2022-10-01T11:00:15.881Z,99612.97
2022-10-01T11:22:10.264Z,99585.27
2022-10-01T11:43:57.085Z,99557.63
2022-10-01T12:05:42.231Z,99544.24
2022-10-01T12:27:45.127Z,99527.96
2022-10-01T12:49:35.422Z,99495.16
2022-10-01T13:11:34.662Z,99475.91
2022-10-01T13:33:26.511Z,99460.07
2022-10-01T13:55:27.271Z,99454.59
2022-10-01T14:17:11.441Z,99423.18
2022-10-01T14:39:14.861Z,99398.67
2022-10-01T15:00:59.236Z,99384.98
2022-10-01T15:22:44.897Z,99439.93
2022-10-01T15:44:45.896Z,99440.84
2022-10-01T16:06:35.246Z,99434.33
2022-10-01T16:28:29.647Z,99417.31
2022-10-01T16:50:15.244Z,99413.92
2022-10-01T17:11:58.476Z,99415.94
2022-10-01T17:33:41.480Z,99424.72
2022-10-01T17:55:24.507Z,99432.79
2022-10-01T18:17:07.893Z,99441.95
2022-10-01T18:39:05.336Z,99457.80
2022-10-01T19:00:58.027Z,99466.09
2022-10-01T19:22:58.721Z,99462.59
2022-10-01T19:44:49.459Z,99472.05
2022-10-01T20:06:36.443Z,99486.70
2022-10-01T20:28:31.088Z,99490.36
2022-10-01T20:50:20.746Z,99493.96
2022-10-01T21:12:10.334Z,99510.61
2022-10-01T21:33:58.294Z,99526.75
2022-10-01T21:56:09.026Z,99545.07
2022-10-01T22:17:54.519Z,99551.73
2022-10-01T22:39:45.857Z,99576.52
2022-10-01T23:01:40.954Z,99602.96
2022-10-01T23:23:31.256Z,99626.09
2022-10-01T23:45:23.518Z,99663.80
